AirNav   ProFlight Series 2 Aviation Headset
 
 814 users online  

07OH Ferrell Flying Field Heliport
Mason, Ohio, USA

GOING TO MASON?


FAA INFORMATION EFFECTIVE 08 OCTOBER 2020

Location

FAA Identifier: 07OH
Lat/Long: 39-23-09.7200N 084-19-16.8300W
39-23.162000N 084-19.280500W
39.3860333,-84.3213417
(estimated)
Elevation: 870 ft. / 265 m (estimated)
From city: 2 miles NNW of MASON, OH
Time zone: UTC -4 (UTC -5 during Standard Time)
Zip code: 45040

Heliport Operations

Heliport use: Private use. Permission required prior to landing
Activation date: 11/2016
Control tower: no
ARTCC: INDIANAPOLIS CENTER
FSS: DAYTON FLIGHT SERVICE STATION
Attendance: 0600-2200
Segmented circle: no

Heliport Communications

WX AWOS-3 at I68 (6 nm NE): 120.55 (513-934-5500)
WX ASOS at HAO (9 nm W): 121.425 (513-863-6137)
WX AWOS-3 at MWO (9 nm N): 120.025 (513-422-3505)
WX ASOS at MGY (13 nm N): 118.375 (937-885-2171)
WX ASOS at LUK (18 nm S): PHONE 513-321-6291
WX AWOS-3 at I69 (19 nm S): 127.275 (513-732-6978)

Nearby radio navigation aids

VOR radial/distance  VOR name  Freq  Var
MXQr268/24.3MIDWEST VOR/DME112.9004W
CVGr043/28.4CINCINNATI VORTAC117.3004W
DQNr176/38.0DAYTON VOR/DME114.5001W

 
NDB name  Hdg/Dist  Freq  Var  ID
HOOK FIELD143/8.923904WHKF .... -.- ..-.
ONIDA183/11.522304WMW -- .--
SPORTYS349/19.224504WPWF .--. .-- ..-.
CLARK COUNTY225/38.534104WCCJ -.-. -.-. .---

Heliport Services

Runway Information

Helipad H1

Dimensions: 75 x 75 ft. / 23 x 23 m
Surface: turf
Traffic pattern: leftleft

Heliport Ownership and Management from official FAA records

Ownership: Privately-owned
Owner: BRETT FERRELL
3708 TOP FLITE LN
MASON, OH 45040
Phone 513-492-7248
Manager: BRETT FERRELL
3708 TOP FLITE LN
MASON, OH 45040
Phone 513-492-7248

Additional Remarks

FOR CD CTC INDIANAPOLIS ARTCC AT 317-247-2411.

Instrument Procedures

There are no published instrument procedures at 07OH.

Some nearby airports with instrument procedures:

I68 - Warren County Airport/John Lane Field (6 nm NE)
KHAO - Butler County Regional Airport-Hogan Field (9 nm W)
KMWO - Middletown Regional Airport/Hook Field (9 nm N)
KMGY - Dayton-Wright Brothers Airport (13 nm N)
KLUK - Cincinnati Municipal Airport-Lunken Field (18 nm S)
I69 - Clermont County Airport (19 nm S)
 
Loc | Ops | Rwys | IFR | FBO | Links
Com | Nav | Svcs | Stats | Notes
Aerial photo
No photo
 
Airport distance calculator
Flying to Ferrell Flying Field Heliport? Find the distance to fly.

From to 07OH

Sunrise and sunset
Times for 19-Oct-2020
 Local
(UTC-4)
 Zulu
(UTC)
Morning civil twilight07:2611:26
Sunrise07:5311:53
Sunset18:5122:51
Evening civil twilight19:1823:18

Current date and time
Zulu (UTC)  20-Oct-2020 03:34:27
Local (UTC-4)  19-Oct-2020 23:34:27
 
METAR
KI68 
6nm NE 
200315Z AUTO 00000KT 10SM -RA OVC004 11/11 A3011 RMK AO1 T01120112
KHAO 
9nm W 
200253Z AUTO 04003KT 10SM OVC005 11/11 A3012 RMK AO2 RAE06B23E38 SLP199 P0001 60003 T01110106 58005
KMWO 
9nm N 
200315Z AUTO 05003KT 10SM SCT006 OVC010 11/ A3013 RMK AO2 LTG DSNT SW T0109////
KMGY 
13nm N 
200253Z AUTO 02005KT 6SM RA BR OVC007 11/10 A3010 RMK AO2 CIG 004V008 SLP193 P0003 60008 T01110100 50000
KLUK 
18nm S 
200319Z AUTO 31004KT 2 1/2SM RA BR OVC005 12/12 A3012 RMK AO2 P0005 T01220117
KI69 
19nm S 
200315Z AUTO 00000KT 3SM RA SCT005 BKN010 OVC018 16/16 A3011 RMK AO2 T01620158
TAF
KLUK 
18nm S 
191939Z 1920/2018 20005KT 2SM BR VCSH OVC008 FM200100 07003KT 4SM -RA BR OVC008 FM201000 36003KT 2SM -RA BR OVC006 FM201500 05004KT 4SM -RA BR OVC008
NOTAMs
Click for the latest NOTAMs
NOTAMs are issued by the DoD/FAA and will open in a separate window not controlled by AirNav.

 

 
 

Would you like to see your business listed on this page?

 If your business provides an interesting product or service to pilots, flight crews, aircraft, or users of the Ferrell Flying Field Heliport, you should consider listing it here.  To start the listing process, click on the button below
 
Add a business
 

Other Pages about Ferrell Flying Field Heliport

Update a link
 
Copyright © AirNav, LLC. All rights reserved. Privacy Policy  Contact